createdAt,value
2022-09-01T00:00:15.108Z,101887.50
2022-09-01T00:02:44.031Z,101886.63
2022-09-01T00:05:12.935Z,101894.84
2022-09-01T00:07:40.782Z,101891.38
2022-09-01T00:10:10.351Z,101884.47
2022-09-01T00:12:39.028Z,101889.00
2022-09-01T00:15:11.084Z,101881.16
2022-09-01T00:17:38.949Z,101892.78
2022-09-01T00:20:08.082Z,101883.16
2022-09-01T00:22:35.734Z,101878.41
2022-09-01T00:25:04.386Z,101884.56
2022-09-01T00:27:32.469Z,101882.78
2022-09-01T00:30:00.825Z,101882.09
2022-09-01T00:32:28.933Z,101890.34
2022-09-01T00:34:56.822Z,101886.00
2022-09-01T00:37:24.159Z,101882.78
2022-09-01T00:39:51.530Z,101882.03
2022-09-01T00:42:19.436Z,101882.22
2022-09-01T00:44:46.866Z,101884.22
2022-09-01T00:47:15.091Z,101873.94
2022-09-01T00:49:48.011Z,101874.97
2022-09-01T00:52:44.839Z,101876.09
2022-09-01T00:55:33.689Z,101872.03
2022-09-01T00:58:04.633Z,101871.34
2022-09-01T01:00:40.866Z,101874.28
2022-09-01T01:03:12.827Z,101866.63
2022-09-01T01:06:08.325Z,101865.22
2022-09-01T01:08:44.474Z,101867.19
2022-09-01T01:11:17.927Z,101867.56
2022-09-01T01:14:15.466Z,101850.31
2022-09-01T01:16:47.832Z,101867.19
2022-09-01T01:19:59.719Z,101864.81
2022-09-01T01:23:02.697Z,101867.75
2022-09-01T01:25:57.407Z,101867.19
2022-09-01T01:28:39.186Z,101858.50
2022-09-01T01:31:19.503Z,101861.97
2022-09-01T01:33:53.363Z,101867.25
2022-09-01T01:36:36.334Z,101866.34
2022-09-01T01:39:23.023Z,101858.41
2022-09-01T01:41:52.789Z,101867.25
2022-09-01T01:44:28.007Z,101869.13
2022-09-01T01:46:58.405Z,101857.88
2022-09-01T01:49:31.185Z,101867.78
2022-09-01T01:51:59.048Z,101862.69
2022-09-01T01:54:32.233Z,101866.44
2022-09-01T01:57:04.272Z,101866.53
2022-09-01T01:59:33.462Z,101878.03
2022-09-01T02:02:03.894Z,101868.59
2022-09-01T02:04:34.180Z,101870.47
2022-09-01T02:07:10.653Z,101871.50
2022-09-01T02:09:40.871Z,101871.69
2022-09-01T02:12:09.355Z,101876.97
2022-09-01T02:14:36.872Z,101875.25
2022-09-01T02:17:06.305Z,101874.41
2022-09-01T02:19:38.526Z,101876.38
2022-09-01T02:22:06.111Z,101875.59
2022-09-01T02:24:34.052Z,101880.13
2022-09-01T02:27:01.476Z,101876.81
2022-09-01T02:29:30.748Z,101861.91
2022-09-01T02:32:04.834Z,101874.38
2022-09-01T02:34:32.222Z,101870.94
2022-09-01T02:36:59.737Z,101862.25
2022-09-01T02:39:34.899Z,101861.41
2022-09-01T02:42:02.884Z,101873.56
2022-09-01T02:44:31.239Z,101867.47
2022-09-01T02:47:00.940Z,101870.00
2022-09-01T02:49:29.818Z,101868.28
2022-09-01T02:52:02.788Z,101866.63
2022-09-01T02:54:33.100Z,101863.88
2022-09-01T02:57:01.907Z,101859.53
2022-09-01T02:59:30.989Z,101859.53
2022-09-01T03:02:01.077Z,101856.06
2022-09-01T03:04:34.911Z,101850.84
2022-09-01T03:07:06.250Z,101851.78
2022-09-01T03:09:35.172Z,101847.53
2022-09-01T03:12:04.297Z,101846.84
2022-09-01T03:14:32.764Z,101851.38
2022-09-01T03:17:00.686Z,101846.28
2022-09-01T03:19:31.864Z,101849.94
2022-09-01T03:22:00.161Z,101849.28
2022-09-01T03:24:30.777Z,101853.94
2022-09-01T03:26:58.316Z,101853.28
2022-09-01T03:29:25.667Z,101850.81
2022-09-01T03:31:53.176Z,101852.88
2022-09-01T03:34:23.549Z,101855.66
2022-09-01T03:36:54.410Z,101853.28
2022-09-01T03:39:30.504Z,101850.81
2022-09-01T03:41:58.921Z,101854.56
2022-09-01T03:44:27.631Z,101850.19
2022-09-01T03:46:55.031Z,101847.66
2022-09-01T03:49:27.767Z,101847.91
2022-09-01T03:51:57.448Z,101850.72
2022-09-01T03:54:27.269Z,101850.88
2022-09-01T03:56:55.168Z,101851.00
2022-09-01T03:59:25.282Z,101845.91
2022-09-01T04:01:52.734Z,101846.00
2022-09-01T04:04:20.475Z,101847.03
2022-09-01T04:06:48.062Z,101842.75
2022-09-01T04:09:15.761Z,101846.44
2022-09-01T04:11:48.460Z,101845.72
2022-09-01T04:14:16.821Z,101845.66
2022-09-01T04:17:05.171Z,101845.72
2022-09-01T04:19:39.432Z,101843.19
2022-09-01T04:22:08.073Z,101840.63
2022-09-01T04:24:45.785Z,101839.94
2022-09-01T04:27:15.641Z,101841.81
2022-09-01T04:29:44.334Z,101843.69
2022-09-01T04:32:15.885Z,101844.63
2022-09-01T04:34:48.818Z,101851.66
2022-09-01T04:37:21.785Z,101849.03
2022-09-01T04:39:57.882Z,101849.09
2022-09-01T04:42:32.493Z,101851.00
2022-09-01T04:45:10.501Z,101851.16
2022-09-01T04:47:42.185Z,101847.75
2022-09-01T04:50:17.434Z,101846.13
2022-09-01T04:53:07.391Z,101851.41
2022-09-01T04:55:47.084Z,101847.13
2022-09-01T04:58:19.261Z,101842.81
2022-09-01T05:00:52.284Z,101851.72
2022-09-01T05:03:24.341Z,101849.09
2022-09-01T05:06:03.974Z,101845.69
2022-09-01T05:08:35.174Z,101849.25
2022-09-01T05:11:07.968Z,101854.50
2022-09-01T05:13:41.775Z,101855.44
2022-09-01T05:16:15.870Z,101851.97
2022-09-01T05:18:49.014Z,101851.19
2022-09-01T05:21:22.428Z,101851.28
2022-09-01T05:23:54.331Z,101854.75
2022-09-01T05:26:29.970Z,101855.50
2022-09-01T05:29:10.710Z,101852.19
2022-09-01T05:31:38.927Z,101852.88
2022-09-01T05:34:09.637Z,101855.50
2022-09-01T05:36:44.789Z,101860.63
2022-09-01T05:39:13.208Z,101854.28
2022-09-01T05:41:41.265Z,101857.44
2022-09-01T05:44:11.260Z,101865.97
2022-09-01T05:46:40.360Z,101860.19
2022-09-01T05:49:14.023Z,101863.28
2022-09-01T05:51:50.499Z,101868.81
2022-09-01T05:54:25.561Z,101867.50
2022-09-01T05:56:55.647Z,101870.47
2022-09-01T05:59:31.009Z,101869.97
2022-09-01T06:02:01.198Z,101869.38
2022-09-01T06:04:29.942Z,101872.75
2022-09-01T06:07:07.775Z,101870.03
2022-09-01T06:09:42.358Z,101875.47
2022-09-01T06:12:18.263Z,101872.25
2022-09-01T06:14:48.436Z,101870.81
2022-09-01T06:17:24.652Z,101876.34
2022-09-01T06:19:56.356Z,101877.28
2022-09-01T06:22:28.261Z,101877.28
2022-09-01T06:25:01.856Z,101882.66
2022-09-01T06:27:38.721Z,101881.88
2022-09-01T06:30:15.060Z,101887.22
2022-09-01T06:32:49.884Z,101882.66
2022-09-01T06:35:18.166Z,101876.41
2022-09-01T06:37:47.189Z,101884.06
2022-09-01T06:40:28.918Z,101884.63
2022-09-01T06:42:56.645Z,101885.88
2022-09-01T06:45:24.907Z,101889.03
2022-09-01T06:47:59.412Z,101888.78
2022-09-01T06:56:13.173Z,101893.34
2022-09-01T06:58:48.267Z,101896.56
2022-09-01T07:01:20.384Z,101893.28
2022-09-01T07:03:54.302Z,101893.34
2022-09-01T07:10:23.517Z,101894.56
2022-09-01T07:13:05.717Z,101892.97
2022-09-01T07:18:33.950Z,101909.91
2022-09-01T07:21:36.287Z,101900.19
2022-09-01T07:24:13.196Z,101900.81
2022-09-01T07:26:54.954Z,101900.81
2022-09-01T07:29:25.742Z,101908.84
2022-09-01T07:34:46.487Z,101906.88
2022-09-01T07:38:46.914Z,101903.34
2022-09-01T07:42:57.898Z,101896.69
2022-09-01T07:43:28.342Z,101901.72
2022-09-01T07:51:59.783Z,101898.84
2022-09-01T07:54:27.921Z,101901.28
2022-09-01T07:56:57.083Z,101899.16
2022-09-01T07:59:27.861Z,101903.91
2022-09-01T08:02:06.666Z,101898.09
2022-09-01T08:04:34.805Z,101892.34
2022-09-01T08:07:04.224Z,101892.88
2022-09-01T08:09:38.033Z,101909.34
2022-09-01T08:12:09.130Z,101897.81
2022-09-01T08:14:46.654Z,101900.91
2022-09-01T08:17:18.256Z,101901.53
2022-09-01T08:20:12.941Z,101901.31
2022-09-01T08:22:58.683Z,101904.47
2022-09-01T08:25:38.198Z,101909.34
2022-09-01T08:28:06.980Z,101909.56
2022-09-01T08:30:35.936Z,101902.84
2022-09-01T08:33:11.427Z,101914.72
2022-09-01T08:35:48.288Z,101906.94
2022-09-01T08:38:16.833Z,101910.16
2022-09-01T08:40:57.027Z,101902.06
2022-09-01T08:44:00.292Z,101903.81
2022-09-01T08:46:42.297Z,101906.97
2022-09-01T08:49:25.359Z,101902.91
2022-09-01T08:53:09.092Z,101906.34
2022-09-01T08:55:47.455Z,101896.34
2022-09-01T08:58:20.057Z,101901.69
2022-09-01T09:02:00.235Z,101900.75
2022-09-01T09:04:55.175Z,101894.34
2022-09-01T09:07:43.726Z,101892.06
2022-09-01T09:10:52.234Z,101891.81
2022-09-01T09:13:38.608Z,101894.81
2022-09-01T09:16:39.806Z,101890.72
2022-09-01T09:19:39.643Z,101890.72
2022-09-01T09:22:19.670Z,101887.94
2022-09-01T09:25:19.285Z,101885.16
2022-09-01T09:28:00.501Z,101885.13
2022-09-01T09:30:31.443Z,101889.56
2022-09-01T09:33:48.914Z,101886.78
2022-09-01T09:36:25.522Z,101878.41
2022-09-01T09:39:18.194Z,101878.34
2022-09-01T09:42:10.490Z,101881.44
2022-09-01T09:44:52.879Z,101884.69
2022-09-01T09:47:46.603Z,101872.94
2022-09-01T09:50:38.566Z,101870.19
2022-09-01T09:53:32.570Z,101864.59
2022-09-01T09:56:25.695Z,101866.09
2022-09-01T09:58:53.792Z,101868.28
2022-09-01T10:01:24.573Z,101862.06
2022-09-01T10:04:04.380Z,101855.69
2022-09-01T10:06:47.100Z,101855.34
2022-09-01T10:09:38.489Z,101851.63
2022-09-01T10:12:07.106Z,101848.41
2022-09-01T10:14:52.014Z,101846.28
2022-09-01T10:17:36.643Z,101847.75
2022-09-01T10:20:21.052Z,101843.25
2022-09-01T10:22:50.972Z,101845.59
2022-09-01T10:25:29.084Z,101842.66
2022-09-01T10:28:25.650Z,101840.97
2022-09-01T10:30:56.601Z,101842.91
2022-09-01T10:33:25.953Z,101838.44
2022-09-01T10:35:55.894Z,101840.50
2022-09-01T10:38:30.589Z,101834.41
2022-09-01T10:41:14.911Z,101837.75
2022-09-01T10:43:47.700Z,101835.91
2022-09-01T10:46:39.007Z,101825.47
2022-09-01T10:49:34.467Z,101823.53
2022-09-01T10:52:07.540Z,101816.88
2022-09-01T10:54:51.014Z,101817.34
2022-09-01T10:57:42.911Z,101819.47
2022-09-01T11:00:37.115Z,101805.00
2022-09-01T11:06:13.154Z,101812.44
2022-09-01T11:09:00.991Z,101811.97
2022-09-01T11:12:07.481Z,101809.91
2022-09-01T11:14:50.265Z,101816.34
2022-09-01T11:17:33.504Z,101810.19
2022-09-01T11:20:10.295Z,101813.44
2022-09-01T11:23:22.018Z,101809.16
2022-09-01T11:28:49.639Z,101798.53
2022-09-01T11:31:38.847Z,101804.25
2022-09-01T11:34:27.747Z,101807.91
2022-09-01T11:37:01.232Z,101806.03
2022-09-01T11:39:52.950Z,101794.13
2022-09-01T11:42:40.118Z,101792.13
2022-09-01T11:45:33.878Z,101792.06
2022-09-01T11:48:09.570Z,101779.56
2022-09-01T11:50:42.125Z,101784.22
2022-09-01T11:53:20.235Z,101785.44
2022-09-01T11:55:53.259Z,101788.66
2022-09-01T11:58:39.187Z,101784.22
2022-09-01T12:01:37.319Z,101782.38
2022-09-01T12:04:31.959Z,101775.31
2022-09-01T12:07:11.046Z,101771.72
2022-09-01T12:09:48.100Z,101772.03
2022-09-01T12:12:41.864Z,101770.50
2022-09-01T12:15:25.489Z,101769.00
2022-09-01T12:18:08.173Z,101768.13
2022-09-01T12:20:39.103Z,101763.88
2022-09-01T12:23:24.631Z,101764.00
2022-09-01T12:26:01.865Z,101760.59
2022-09-01T12:28:34.330Z,101762.47
2022-09-01T12:31:08.152Z,101757.72
2022-09-01T12:33:36.923Z,101764.41
2022-09-01T12:36:28.579Z,101762.28
2022-09-01T12:39:23.570Z,101755.03
2022-09-01T12:42:24.513Z,101758.34
2022-09-01T12:44:59.170Z,101755.44
2022-09-01T12:47:48.102Z,101750.03
2022-09-01T12:50:17.000Z,101748.34
2022-09-01T12:52:54.858Z,101750.34
2022-09-01T12:55:48.094Z,101741.19
2022-09-01T12:58:26.748Z,101739.88
2022-09-01T13:01:16.236Z,101732.97
2022-09-01T13:04:22.720Z,101732.97
2022-09-01T13:06:52.390Z,101731.13
2022-09-01T13:09:20.285Z,101737.84
2022-09-01T13:14:35.201Z,101726.13
2022-09-01T13:17:02.575Z,101723.81
2022-09-01T13:19:30.485Z,101721.63
2022-09-01T13:21:58.544Z,101720.81
2022-09-01T13:24:30.166Z,101721.56
2022-09-01T13:29:46.967Z,101710.22
2022-09-01T13:32:19.143Z,101714.63
2022-09-01T13:34:51.973Z,101713.94
2022-09-01T13:37:22.509Z,101710.91
2022-09-01T13:39:50.821Z,101705.22
2022-09-01T13:42:18.384Z,101713.94
2022-09-01T13:44:49.718Z,101704.69
2022-09-01T13:48:14.815Z,101708.53
2022-09-01T13:50:12.242Z,101700.81
2022-09-01T13:52:45.863Z,101693.22
2022-09-01T13:55:43.182Z,101701.59
2022-09-01T13:58:12.478Z,101697.06
2022-09-01T14:00:47.119Z,101696.75
2022-09-01T14:03:22.850Z,101688.69
2022-09-01T14:05:51.164Z,101678.81
2022-09-01T14:08:23.866Z,101687.69
2022-09-01T14:10:53.738Z,101687.53
2022-09-01T14:13:25.429Z,101683.81
2022-09-01T14:15:54.176Z,101671.25
2022-09-01T14:18:22.643Z,101673.94
2022-09-01T14:20:52.237Z,101678.44
2022-09-01T14:23:20.696Z,101677.63
2022-09-01T14:25:51.475Z,101669.75
2022-09-01T14:28:23.029Z,101661.38
2022-09-01T14:33:24.430Z,101670.91
2022-09-01T14:35:51.847Z,101667.88
2022-09-01T14:38:20.181Z,101662.00
2022-09-01T14:40:51.607Z,101663.53
2022-09-01T14:43:20.025Z,101657.22
2022-09-01T14:45:48.120Z,101653.94
2022-09-01T14:48:20.727Z,101660.19
2022-09-01T14:50:50.932Z,101652.41
2022-09-01T14:53:19.469Z,101646.25
2022-09-01T14:55:46.930Z,101634.25
2022-09-01T14:58:14.315Z,101635.03
2022-09-01T15:00:42.249Z,101637.44
2022-09-01T15:03:09.890Z,101644.69
2022-09-01T15:05:40.111Z,101640.00
2022-09-01T15:08:15.552Z,101642.53
2022-09-01T15:10:45.099Z,101628.38
2022-09-01T15:13:13.663Z,101636.25
2022-09-01T15:15:41.621Z,101613.03
2022-09-01T15:18:09.233Z,101628.75
2022-09-01T15:20:46.273Z,101623.53
2022-09-01T15:23:25.908Z,101624.75
2022-09-01T15:25:55.996Z,101621.59
2022-09-01T15:28:25.480Z,101624.69
2022-09-01T15:30:54.494Z,101618.06
2022-09-01T15:33:22.016Z,101611.63
2022-09-01T15:35:49.390Z,101611.16
2022-09-01T15:38:17.936Z,101609.66
2022-09-01T15:40:57.750Z,101610.94
2022-09-01T15:43:30.503Z,101605.97
2022-09-01T15:46:07.323Z,101602.59
2022-09-01T15:48:38.636Z,101602.16
2022-09-01T15:51:37.381Z,101605.53
2022-09-01T15:54:19.832Z,101601.19
2022-09-01T15:56:59.644Z,101598.47
2022-09-01T15:59:27.014Z,101602.44
2022-09-01T16:01:59.692Z,101588.69
2022-09-01T16:04:57.085Z,101599.75
2022-09-01T16:07:29.569Z,101592.00
2022-09-01T16:10:06.986Z,101588.13
2022-09-01T16:12:35.810Z,101583.06
2022-09-01T16:15:03.777Z,101579.94
2022-09-01T16:18:05.290Z,101579.66
2022-09-01T16:21:32.644Z,101579.19
2022-09-01T16:24:10.113Z,101575.69
2022-09-01T16:26:38.438Z,101578.47
2022-09-01T16:29:55.701Z,101571.09
2022-09-01T16:32:24.153Z,101569.84
2022-09-01T16:34:53.437Z,101573.09
2022-09-01T16:37:56.767Z,101562.06
2022-09-01T16:41:43.943Z,101563.94
2022-09-01T16:44:50.812Z,101556.94
2022-09-01T16:47:38.730Z,101556.41
2022-09-01T16:50:40.206Z,101559.28
2022-09-01T16:53:25.569Z,101556.78
2022-09-01T16:56:09.545Z,101553.69
2022-09-01T16:59:23.951Z,101558.69
2022-09-01T17:02:38.128Z,101551.81
2022-09-01T17:05:57.191Z,101551.28
2022-09-01T17:08:41.660Z,101554.78
2022-09-01T17:11:26.941Z,101544.88
2022-09-01T17:13:56.147Z,101546.34
2022-09-01T17:16:39.484Z,101547.97
2022-09-01T17:19:21.119Z,101547.63
2022-09-01T17:22:11.057Z,101551.94
2022-09-01T17:24:51.263Z,101548.06
2022-09-01T17:28:09.113Z,101549.22
2022-09-01T17:30:53.527Z,101553.41
2022-09-01T17:33:50.053Z,101556.88
2022-09-01T17:36:49.004Z,101549.47
2022-09-01T17:39:49.368Z,101554.78
2022-09-01T17:42:32.746Z,101545.88
2022-09-01T17:45:30.744Z,101548.59
2022-09-01T17:48:18.171Z,101553.91
2022-09-01T17:51:06.818Z,101550.16
2022-09-01T17:53:58.168Z,101555.31
2022-09-01T17:56:37.289Z,101548.22
2022-09-01T17:59:38.596Z,101541.94
2022-09-01T18:02:41.908Z,101557.94
2022-09-01T18:05:24.644Z,101550.00
2022-09-01T18:08:07.150Z,101552.75
2022-09-01T18:11:15.821Z,101552.63
2022-09-01T18:13:53.143Z,101547.38
2022-09-01T18:16:41.713Z,101549.25
2022-09-01T18:19:24.630Z,101550.00
2022-09-01T18:22:07.102Z,101555.97
2022-09-01T18:25:07.682Z,101558.84
2022-09-01T18:27:36.780Z,101557.75
2022-09-01T18:30:06.164Z,101561.31
2022-09-01T18:33:19.342Z,101562.91
2022-09-01T18:36:22.086Z,101569.09
2022-09-01T18:40:00.760Z,101573.63
2022-09-01T18:42:41.580Z,101584.22
2022-09-01T18:45:53.697Z,101577.91
2022-09-01T18:49:03.687Z,101580.59
2022-09-01T18:52:10.932Z,101581.47
2022-09-01T18:55:17.208Z,101583.16
2022-09-01T18:57:53.275Z,101586.66
2022-09-01T19:00:52.219Z,101590.00
2022-09-01T19:03:54.222Z,101584.00
2022-09-01T19:06:59.895Z,101590.72
2022-09-01T19:09:59.937Z,101586.22
2022-09-01T19:13:17.749Z,101585.09
2022-09-01T19:16:58.390Z,101583.38
2022-09-01T19:19:57.564Z,101583.25
2022-09-01T19:23:16.856Z,101593.78
2022-09-01T19:25:45.525Z,101588.38
2022-09-01T19:28:52.824Z,101590.91
2022-09-01T19:31:34.405Z,101591.56
2022-09-01T19:34:25.709Z,101593.06
2022-09-01T19:36:59.737Z,101589.25
2022-09-01T19:39:39.869Z,101590.78
2022-09-01T19:42:42.686Z,101597.59
2022-09-01T19:45:36.083Z,101590.31
2022-09-01T19:48:17.045Z,101593.50
2022-09-01T19:51:11.766Z,101594.84
2022-09-01T19:54:17.780Z,101591.88
2022-09-01T19:57:19.045Z,101595.06
2022-09-01T20:00:28.165Z,101591.94
2022-09-01T20:03:12.662Z,101593.47
2022-09-01T20:06:08.514Z,101595.63
2022-09-01T20:09:05.790Z,101592.63
2022-09-01T20:12:22.529Z,101594.00
2022-09-01T20:15:24.475Z,101593.41
2022-09-01T20:18:19.900Z,101600.09
2022-09-01T20:20:50.997Z,101594.31
2022-09-01T20:23:37.541Z,101605.22
2022-09-01T20:26:29.045Z,101595.91
2022-09-01T20:29:45.872Z,101591.84
2022-09-01T20:32:27.647Z,101597.53
2022-09-01T20:35:20.666Z,101596.94
2022-09-01T20:38:01.059Z,101598.16
2022-09-01T20:40:41.131Z,101591.66
2022-09-01T20:43:30.848Z,101595.28
2022-09-01T20:45:58.382Z,101591.31
2022-09-01T20:48:30.449Z,101589.03
2022-09-01T20:51:27.542Z,101583.97
2022-09-01T20:54:31.294Z,101586.16
2022-09-01T20:57:55.365Z,101584.59
2022-09-01T21:00:30.427Z,101588.56
2022-09-01T21:03:49.072Z,101588.09
2022-09-01T21:07:13.852Z,101590.28
2022-09-01T21:09:59.882Z,101581.81
2022-09-01T21:12:42.060Z,101577.88
2022-09-01T21:15:33.886Z,101578.13
2022-09-01T21:18:39.893Z,101589.00
2022-09-01T21:21:45.497Z,101586.56
2022-09-01T21:24:13.312Z,101577.16
2022-09-01T21:26:40.713Z,101578.34
2022-09-01T21:29:55.593Z,101581.38
2022-09-01T21:32:24.078Z,101578.13
2022-09-01T21:34:53.084Z,101573.06
2022-09-01T21:37:23.608Z,101568.94
2022-09-01T21:39:53.983Z,101570.03
2022-09-01T21:42:44.787Z,101564.09
2022-09-01T21:45:18.160Z,101570.53
2022-09-01T21:47:48.727Z,101560.13
2022-09-01T21:50:20.938Z,101561.94
2022-09-01T21:52:48.777Z,101564.94
2022-09-01T21:55:22.075Z,101559.88
2022-09-01T21:57:51.798Z,101562.66
2022-09-01T22:00:36.303Z,101560.13
2022-09-01T22:03:04.118Z,101556.16
2022-09-01T22:05:33.361Z,101554.56
2022-09-01T22:08:01.500Z,101559.28
2022-09-01T22:10:31.844Z,101547.91
2022-09-01T22:13:03.695Z,101551.53
2022-09-01T22:15:31.710Z,101548.34
2022-09-01T22:17:59.323Z,101549.69
2022-09-01T22:20:28.555Z,101545.56
2022-09-01T22:22:57.896Z,101546.88
2022-09-01T22:25:25.611Z,101540.03
2022-09-01T22:27:52.929Z,101536.63
2022-09-01T22:30:20.429Z,101543.16
2022-09-01T22:32:47.993Z,101539.88
2022-09-01T22:35:18.323Z,101541.09
2022-09-01T22:37:46.625Z,101538.66
2022-09-01T22:40:15.942Z,101537.94
2022-09-01T22:42:44.275Z,101528.63
2022-09-01T22:45:15.003Z,101535.00
2022-09-01T22:47:42.741Z,101535.13
2022-09-01T22:50:11.421Z,101536.34
2022-09-01T22:52:39.721Z,101534.97
2022-09-01T22:55:09.875Z,101533.28
2022-09-01T22:57:37.710Z,101533.63
2022-09-01T23:00:11.248Z,101526.53
2022-09-01T23:02:44.819Z,101527.47
2022-09-01T23:05:12.265Z,101531.31
2022-09-01T23:07:39.993Z,101527.22
2022-09-01T23:10:19.467Z,101524.69
2022-09-01T23:12:49.406Z,101530.22
2022-09-01T23:15:20.617Z,101529.59
2022-09-01T23:17:56.399Z,101524.38
2022-09-01T23:20:23.925Z,101514.25
2022-09-01T23:22:51.244Z,101521.59
2022-09-01T23:25:18.961Z,101514.78
2022-09-01T23:27:47.100Z,101513.34
2022-09-01T23:30:16.246Z,101518.00
2022-09-01T23:32:44.120Z,101511.97
2022-09-01T23:35:12.360Z,101514.84
2022-09-01T23:37:39.688Z,101513.47
2022-09-01T23:40:08.780Z,101512.97
2022-09-01T23:42:36.322Z,101517.78
2022-09-01T23:45:04.949Z,101506.75
2022-09-01T23:47:32.275Z,101503.59
2022-09-01T23:49:59.541Z,101509.25
2022-09-01T23:52:26.993Z,101503.44
2022-09-01T23:54:54.587Z,101506.31
2022-09-01T23:57:21.997Z,101502.16
2022-09-01T23:59:49.657Z,101502.50
